createdAt,value
2024-05-09T00:00:49.302Z,50.88
2024-05-09T00:03:40.926Z,51.01
2024-05-09T00:06:10.266Z,51.35
2024-05-09T00:08:39.443Z,51.43
2024-05-09T00:11:08.400Z,51.56
2024-05-09T00:13:37.753Z,51.64
2024-05-09T00:16:07.508Z,51.79
2024-05-09T00:18:36.566Z,51.87
2024-05-09T00:21:07.604Z,52.07
2024-05-09T00:23:36.665Z,52.41
2024-05-09T00:26:05.728Z,52.88
2024-05-09T00:28:34.618Z,53.03
2024-05-09T00:31:03.527Z,53.46
2024-05-09T00:33:32.724Z,53.75
2024-05-09T00:36:02.131Z,54.10
2024-05-09T00:38:31.106Z,54.03
2024-05-09T00:41:00.138Z,54.02
2024-05-09T00:43:29.199Z,54.28
2024-05-09T00:45:58.999Z,54.54
2024-05-09T00:48:28.596Z,54.87
2024-05-09T00:50:57.869Z,55.19
2024-05-09T00:53:26.742Z,55.37
2024-05-09T00:55:57.414Z,55.55
2024-05-09T00:58:28.910Z,55.58
2024-05-09T01:01:00.688Z,55.67
2024-05-09T01:03:29.538Z,55.80
2024-05-09T01:05:58.905Z,56.22
2024-05-09T01:08:27.840Z,56.35
2024-05-09T01:10:56.901Z,56.31
2024-05-09T01:13:25.907Z,56.36
2024-05-09T01:15:55.510Z,56.63
2024-05-09T01:18:25.059Z,56.87
2024-05-09T01:20:53.852Z,57.38
2024-05-09T01:23:22.670Z,57.73
2024-05-09T01:25:51.664Z,57.90
2024-05-09T01:28:20.606Z,57.88
2024-05-09T01:30:49.567Z,58.06
2024-05-09T01:33:18.657Z,58.08
2024-05-09T01:35:47.693Z,58.27
2024-05-09T01:38:17.610Z,58.68
2024-05-09T01:40:47.390Z,58.92
2024-05-09T01:43:16.493Z,58.81
2024-05-09T01:45:45.160Z,58.83
2024-05-09T01:48:13.944Z,58.99
2024-05-09T01:50:43.641Z,58.96
2024-05-09T01:53:15.164Z,58.67
2024-05-09T01:55:44.580Z,58.85
2024-05-09T01:58:13.599Z,58.88
2024-05-09T02:00:43.500Z,58.87
2024-05-09T02:03:16.457Z,59.07
2024-05-09T02:05:52.253Z,58.98
2024-05-09T02:08:22.306Z,59.00
2024-05-09T02:10:51.581Z,58.99
2024-05-09T02:13:20.455Z,59.13
2024-05-09T02:15:52.367Z,59.11
2024-05-09T02:18:21.679Z,58.87
2024-05-09T02:20:50.575Z,59.34
2024-05-09T02:23:20.089Z,59.04
2024-05-09T02:25:49.128Z,59.17
2024-05-09T02:28:21.287Z,59.18
2024-05-09T02:30:49.952Z,59.47
2024-05-09T02:33:19.051Z,59.46
2024-05-09T02:35:48.256Z,59.39
2024-05-09T02:38:17.324Z,59.77
2024-05-09T02:40:46.495Z,59.88
2024-05-09T02:43:15.749Z,59.73
2024-05-09T02:45:44.722Z,59.82
2024-05-09T02:48:14.284Z,59.77
2024-05-09T02:50:44.378Z,59.95
2024-05-09T02:53:14.994Z,60.17
2024-05-09T02:55:44.410Z,60.18
2024-05-09T02:58:13.588Z,60.35
2024-05-09T03:00:43.208Z,60.68
2024-05-09T03:03:15.317Z,60.69
2024-05-09T03:05:47.563Z,61.04
2024-05-09T03:08:16.545Z,60.79
2024-05-09T03:10:45.510Z,60.63
2024-05-09T03:13:16.154Z,60.65
2024-05-09T03:15:45.787Z,60.65
2024-05-09T03:18:15.447Z,60.74
2024-05-09T03:20:44.922Z,60.73
2024-05-09T03:23:14.177Z,60.77
2024-05-09T03:25:43.147Z,60.94
2024-05-09T03:28:12.240Z,61.20
2024-05-09T03:30:43.036Z,61.24
2024-05-09T03:33:18.703Z,61.60
2024-05-09T03:35:49.625Z,61.61
2024-05-09T03:38:18.720Z,61.75
2024-05-09T03:40:50.828Z,61.65
2024-05-09T03:43:20.177Z,61.80
2024-05-09T03:45:50.767Z,62.02
2024-05-09T03:48:19.984Z,62.12
2024-05-09T03:50:49.184Z,61.70
2024-05-09T03:53:18.415Z,61.38
2024-05-09T03:55:49.128Z,61.45
2024-05-09T03:58:19.201Z,61.51
2024-05-09T04:00:48.458Z,61.38
2024-05-09T04:03:17.426Z,61.17
2024-05-09T04:05:46.404Z,60.99
2024-05-09T04:08:15.894Z,60.88
2024-05-09T04:10:46.121Z,61.11
2024-05-09T04:13:15.102Z,60.79
2024-05-09T04:15:45.562Z,60.67
2024-05-09T04:18:17.238Z,60.31
2024-05-09T04:20:46.852Z,60.32
2024-05-09T04:23:15.711Z,60.40
2024-05-09T04:25:45.789Z,60.07
2024-05-09T04:28:14.751Z,59.87
2024-05-09T04:30:43.896Z,59.90
2024-05-09T04:33:15.208Z,59.78
2024-05-09T04:35:45.123Z,59.67
2024-05-09T04:38:15.197Z,59.31
2024-05-09T04:40:44.564Z,59.27
2024-05-09T04:43:16.116Z,58.75
2024-05-09T04:45:45.779Z,58.58
2024-05-09T04:48:15.147Z,58.35
2024-05-09T04:50:44.341Z,58.10
2024-05-09T04:53:17.376Z,58.02
2024-05-09T04:55:46.437Z,57.73
2024-05-09T04:58:15.422Z,57.12
2024-05-09T05:00:45.078Z,56.41
2024-05-09T05:03:15.791Z,56.22
2024-05-09T05:05:47.863Z,55.53
2024-05-09T05:08:19.163Z,55.01
2024-05-09T05:10:49.336Z,54.77
2024-05-09T05:13:24.934Z,53.77
2024-05-09T05:15:56.463Z,53.17
2024-05-09T05:18:28.006Z,52.66
2024-05-09T05:20:58.672Z,51.48
2024-05-09T05:23:27.562Z,50.83
2024-05-09T05:25:56.494Z,49.90
2024-05-09T05:28:25.591Z,49.08
2024-05-09T05:30:54.501Z,48.54
2024-05-09T05:33:23.762Z,48.25
2024-05-09T05:35:52.719Z,46.78
2024-05-09T05:38:24.949Z,46.46
2024-05-09T05:40:56.358Z,45.80
2024-05-09T05:43:25.225Z,45.44
2024-05-09T05:45:53.997Z,44.87
2024-05-09T05:48:23.196Z,44.20
2024-05-09T05:50:52.389Z,43.70
2024-05-09T05:53:21.272Z,43.42
2024-05-09T05:55:50.126Z,42.77
2024-05-09T05:58:20.416Z,42.06
2024-05-09T06:00:49.199Z,40.99
2024-05-09T06:03:17.930Z,39.64
2024-05-09T06:05:47.279Z,39.38
2024-05-09T06:08:16.453Z,39.38
2024-05-09T06:10:45.601Z,38.29
2024-05-09T06:13:15.896Z,38.39
2024-05-09T06:15:44.756Z,37.62
2024-05-09T06:18:14.578Z,36.50
2024-05-09T06:20:44.318Z,35.29
2024-05-09T06:23:14.352Z,35.50
2024-05-09T06:25:44.061Z,34.77
2024-05-09T06:28:13.125Z,34.43
2024-05-09T06:30:43.238Z,33.72
2024-05-09T06:33:14.927Z,32.89
2024-05-09T06:35:46.203Z,32.09
2024-05-09T06:38:15.226Z,30.99
2024-05-09T06:40:44.761Z,31.02
2024-05-09T06:43:16.852Z,30.83
2024-05-09T06:45:49.054Z,30.63
2024-05-09T06:48:19.844Z,30.26
2024-05-09T06:50:50.268Z,30.43
2024-05-09T06:53:23.498Z,30.08
2024-05-09T06:55:52.794Z,29.48
2024-05-09T06:58:22.011Z,28.30
2024-05-09T07:00:50.983Z,28.05
2024-05-09T07:03:20.250Z,27.70
2024-05-09T07:05:50.068Z,27.65
2024-05-09T07:08:19.588Z,27.54
2024-05-09T07:10:48.573Z,27.30
2024-05-09T07:13:17.869Z,26.95
2024-05-09T07:15:46.806Z,26.21
2024-05-09T07:18:18.356Z,25.85
2024-05-09T07:20:49.314Z,25.64
2024-05-09T07:23:19.266Z,25.80
2024-05-09T07:25:48.569Z,25.63
2024-05-09T07:28:20.382Z,25.10
2024-05-09T07:30:49.149Z,25.35
2024-05-09T07:33:23.572Z,24.64
2024-05-09T07:35:53.410Z,24.57
2024-05-09T07:38:22.642Z,24.36
2024-05-09T07:40:51.689Z,24.58
2024-05-09T07:43:20.668Z,24.60
2024-05-09T07:45:55.222Z,24.38
2024-05-09T07:53:00.877Z,23.75
2024-05-09T07:53:53.543Z,23.45
2024-05-09T07:56:26.059Z,23.17
2024-05-09T07:58:55.419Z,23.29
2024-05-09T08:01:27.571Z,22.83
2024-05-09T08:03:56.647Z,22.15
2024-05-09T08:06:26.765Z,21.84
2024-05-09T08:08:56.019Z,21.41
2024-05-09T08:11:25.810Z,21.84
2024-05-09T08:13:54.848Z,21.21
2024-05-09T08:16:24.144Z,21.38
2024-05-09T08:18:53.218Z,20.96
2024-05-09T08:21:22.441Z,20.99
2024-05-09T08:23:51.440Z,21.07
2024-05-09T08:26:20.830Z,20.88
2024-05-09T08:28:49.739Z,20.78
2024-05-09T08:31:18.731Z,20.46
2024-05-09T08:33:49.069Z,20.08
2024-05-09T08:36:18.138Z,19.88
2024-05-09T08:38:47.023Z,19.84
2024-05-09T08:41:16.322Z,20.36
2024-05-09T08:43:46.808Z,20.33
2024-05-09T08:46:18.550Z,20.20
2024-05-09T08:48:49.419Z,19.71
2024-05-09T08:51:18.747Z,19.74
2024-05-09T08:53:47.573Z,20.25
2024-05-09T08:56:17.254Z,20.21
2024-05-09T08:58:49.308Z,19.87
2024-05-09T09:01:18.915Z,20.17
2024-05-09T09:03:49.603Z,20.01
2024-05-09T09:06:21.561Z,19.69
2024-05-09T09:08:51.126Z,19.07
2024-05-09T09:11:19.907Z,19.15
2024-05-09T09:13:49.914Z,19.14
2024-05-09T09:16:18.888Z,19.22
2024-05-09T09:18:48.216Z,18.75
2024-05-09T09:21:17.746Z,18.84
2024-05-09T09:23:46.611Z,18.85
2024-05-09T09:26:17.032Z,19.17
2024-05-09T09:28:46.975Z,18.74
2024-05-09T09:31:19.878Z,18.48
2024-05-09T09:33:49.127Z,18.63
2024-05-09T09:36:19.053Z,18.79
2024-05-09T09:38:48.429Z,18.61
2024-05-09T09:41:19.862Z,18.82
2024-05-09T09:43:48.979Z,18.84
2024-05-09T09:46:19.471Z,17.17
2024-05-09T09:48:49.292Z,16.48
2024-05-09T09:51:19.668Z,16.31
2024-05-09T09:53:50.454Z,16.61
2024-05-09T09:56:21.182Z,17.11
2024-05-09T09:58:51.121Z,17.63
2024-05-09T10:01:20.225Z,17.34
2024-05-09T10:03:49.312Z,17.43
2024-05-09T10:06:19.737Z,17.90
2024-05-09T10:08:49.671Z,18.40
2024-05-09T10:11:22.405Z,18.66
2024-05-09T10:13:52.042Z,18.73
2024-05-09T10:16:24.337Z,18.90
2024-05-09T10:18:53.609Z,18.97
2024-05-09T10:21:22.601Z,19.60
2024-05-09T10:24:04.548Z,19.17
2024-05-09T10:26:38.106Z,19.31
2024-05-09T10:29:14.265Z,18.78
2024-05-09T10:31:46.197Z,19.34
2024-05-09T10:34:24.822Z,18.91
2024-05-09T10:36:55.357Z,18.29
2024-05-09T10:39:25.648Z,17.83
2024-05-09T10:41:54.694Z,17.73
2024-05-09T10:44:23.592Z,17.75
2024-05-09T10:46:54.751Z,17.96
2024-05-09T10:49:24.067Z,17.93
2024-05-09T10:51:53.302Z,18.02
2024-05-09T10:54:22.110Z,18.49
2024-05-09T10:56:57.717Z,18.82
2024-05-09T10:59:43.132Z,19.13
2024-05-09T11:02:12.411Z,19.87
2024-05-09T11:04:41.942Z,20.31
2024-05-09T11:07:16.996Z,20.20
2024-05-09T11:09:46.304Z,20.14
2024-05-09T11:12:15.804Z,20.40
2024-05-09T11:14:55.013Z,20.82
2024-05-09T11:17:24.044Z,21.04
2024-05-09T11:19:53.452Z,20.78
2024-05-09T11:22:25.157Z,21.02
2024-05-09T11:24:55.375Z,21.10
2024-05-09T11:27:24.613Z,20.35
2024-05-09T11:29:53.363Z,20.75
2024-05-09T11:32:30.000Z,21.44
2024-05-09T11:34:58.918Z,21.31
2024-05-09T11:37:27.760Z,21.87
2024-05-09T11:39:56.747Z,22.25
2024-05-09T11:42:25.586Z,22.33
2024-05-09T11:44:54.474Z,21.63
2024-05-09T11:47:23.412Z,21.66
2024-05-09T11:49:54.619Z,21.75
2024-05-09T11:52:23.897Z,21.12
2024-05-09T11:54:52.936Z,20.81
2024-05-09T11:57:24.358Z,20.79
2024-05-09T11:59:53.243Z,21.02
2024-05-09T12:02:22.249Z,21.28
2024-05-09T12:04:51.828Z,21.07
2024-05-09T12:07:21.659Z,21.17
2024-05-09T12:09:50.401Z,21.86
2024-05-09T12:12:19.228Z,22.18
2024-05-09T12:14:48.217Z,22.59
2024-05-09T12:17:17.249Z,22.80
2024-05-09T12:19:46.367Z,22.93
2024-05-09T12:22:15.449Z,22.86
2024-05-09T12:24:44.635Z,22.55
2024-05-09T12:27:13.486Z,22.56
2024-05-09T12:29:42.582Z,22.47
2024-05-09T12:32:11.494Z,22.31
2024-05-09T12:34:40.614Z,22.03
2024-05-09T12:37:09.693Z,22.29
2024-05-09T12:39:38.778Z,21.93
2024-05-09T12:42:07.918Z,21.21
2024-05-09T12:44:37.057Z,21.00
2024-05-09T12:47:05.945Z,21.07
2024-05-09T12:49:35.109Z,21.25
2024-05-09T12:52:04.961Z,21.24
2024-05-09T12:54:33.792Z,21.07
2024-05-09T12:57:02.849Z,21.18
2024-05-09T12:59:31.822Z,21.12
2024-05-09T13:02:01.221Z,21.11
2024-05-09T13:04:30.638Z,21.03
2024-05-09T13:06:59.997Z,20.65
2024-05-09T13:09:28.750Z,20.78
2024-05-09T13:11:57.542Z,21.17
2024-05-09T13:14:26.498Z,21.65
2024-05-09T13:16:55.506Z,21.63
2024-05-09T13:19:24.766Z,22.04
2024-05-09T13:21:53.781Z,22.41
2024-05-09T13:24:22.898Z,22.55
2024-05-09T13:26:51.698Z,22.54
2024-05-09T13:29:20.677Z,22.63
2024-05-09T13:31:49.543Z,22.89
2024-05-09T13:34:18.456Z,22.95
2024-05-09T13:36:47.321Z,23.15
2024-05-09T13:39:16.349Z,23.32
2024-05-09T13:41:45.409Z,23.40
2024-05-09T13:44:14.202Z,23.08
2024-05-09T13:46:43.100Z,23.37
2024-05-09T13:49:16.924Z,23.69
2024-05-09T13:51:46.036Z,23.64
2024-05-09T13:54:16.161Z,23.44
2024-05-09T13:56:46.128Z,23.48
2024-05-09T13:59:15.012Z,23.68
2024-05-09T14:01:44.041Z,23.93
2024-05-09T14:04:13.171Z,24.18
2024-05-09T14:06:42.889Z,24.03
2024-05-09T14:09:12.113Z,24.04
2024-05-09T14:11:42.249Z,23.99
2024-05-09T14:14:11.055Z,24.04
2024-05-09T14:16:40.218Z,23.80
2024-05-09T14:19:09.913Z,23.88
2024-05-09T14:21:38.831Z,23.97
2024-05-09T14:24:07.801Z,23.84
2024-05-09T14:26:37.436Z,23.90
2024-05-09T14:29:06.501Z,23.97
2024-05-09T14:31:37.965Z,23.99
2024-05-09T14:34:08.318Z,23.93
2024-05-09T14:36:37.547Z,23.76
2024-05-09T14:39:06.873Z,23.73
2024-05-09T14:41:35.871Z,23.76
2024-05-09T14:44:05.068Z,23.89
2024-05-09T14:46:34.011Z,23.84
2024-05-09T14:49:03.060Z,23.91
2024-05-09T14:51:32.096Z,23.91
2024-05-09T14:54:01.044Z,24.13
2024-05-09T14:56:29.915Z,24.28
2024-05-09T14:58:59.675Z,24.37
2024-05-09T15:01:28.390Z,24.46
2024-05-09T15:03:57.652Z,24.22
2024-05-09T15:06:26.834Z,24.27
2024-05-09T15:08:57.443Z,24.37
2024-05-09T15:11:26.277Z,24.41
2024-05-09T15:13:55.426Z,24.44
2024-05-09T15:16:25.675Z,24.53
2024-05-09T15:18:54.731Z,24.67
2024-05-09T15:21:23.680Z,24.77
2024-05-09T15:23:53.036Z,24.76
2024-05-09T15:26:21.822Z,24.72
2024-05-09T15:28:50.714Z,24.80
2024-05-09T15:31:19.525Z,24.76
2024-05-09T15:33:48.774Z,24.78
2024-05-09T15:36:18.055Z,24.77
2024-05-09T15:38:47.700Z,24.82
2024-05-09T15:41:16.595Z,24.82
2024-05-09T15:43:45.500Z,24.48
2024-05-09T15:46:14.630Z,24.38
2024-05-09T15:48:44.858Z,24.49
2024-05-09T15:51:14.002Z,24.57
2024-05-09T15:53:42.885Z,24.43
2024-05-09T15:56:11.776Z,24.50
2024-05-09T15:58:40.571Z,24.60
2024-05-09T16:01:09.670Z,24.86
2024-05-09T16:03:38.838Z,24.98
2024-05-09T16:06:08.052Z,24.67
2024-05-09T16:08:36.946Z,24.72
2024-05-09T16:11:06.091Z,24.87
2024-05-09T16:13:35.233Z,24.90
2024-05-09T16:16:04.509Z,24.77
2024-05-09T16:18:33.941Z,24.94
2024-05-09T16:21:02.930Z,24.98
2024-05-09T16:23:34.629Z,24.89
2024-05-09T16:26:03.368Z,24.90
2024-05-09T16:28:32.709Z,25.00
2024-05-09T16:31:02.645Z,24.77
2024-05-09T16:33:31.626Z,24.90
2024-05-09T16:36:01.006Z,24.77
2024-05-09T16:38:29.671Z,24.76
2024-05-09T16:40:58.915Z,24.81
2024-05-09T16:43:27.892Z,24.88
2024-05-09T16:45:56.871Z,25.08
2024-05-09T16:48:25.678Z,25.29
2024-05-09T16:50:54.742Z,25.32
2024-05-09T16:53:27.927Z,25.07
2024-05-09T16:55:57.007Z,24.98
2024-05-09T16:58:26.515Z,24.90
2024-05-09T17:00:55.489Z,24.98
2024-05-09T17:03:24.624Z,24.87
2024-05-09T17:05:53.883Z,24.88
2024-05-09T17:08:23.000Z,25.31
2024-05-09T17:10:52.096Z,25.21
2024-05-09T17:13:22.677Z,25.28
2024-05-09T17:15:52.480Z,25.33
2024-05-09T17:18:22.318Z,26.02
2024-05-09T17:20:52.402Z,25.99
2024-05-09T17:23:21.287Z,26.15
2024-05-09T17:25:50.352Z,26.36
2024-05-09T17:28:19.598Z,26.70
2024-05-09T17:30:48.754Z,26.89
2024-05-09T17:33:17.832Z,27.03
2024-05-09T17:35:50.703Z,27.01
2024-05-09T17:38:22.807Z,27.11
2024-05-09T17:40:53.250Z,27.37
2024-05-09T17:43:22.453Z,27.66
2024-05-09T17:45:51.556Z,27.90
2024-05-09T17:48:20.674Z,27.96
2024-05-09T17:50:51.588Z,28.12
2024-05-09T17:53:20.456Z,28.24
2024-05-09T17:55:49.203Z,28.42
2024-05-09T17:58:17.851Z,28.74
2024-05-09T18:00:46.821Z,28.68
2024-05-09T18:03:15.875Z,28.96
2024-05-09T18:05:45.550Z,28.91
2024-05-09T18:08:14.744Z,28.87
2024-05-09T18:10:44.403Z,29.14
2024-05-09T18:13:13.854Z,29.33
2024-05-09T18:15:42.859Z,29.48
2024-05-09T18:18:12.920Z,29.74
2024-05-09T18:20:45.382Z,29.99
2024-05-09T18:23:18.516Z,30.11
2024-05-09T18:25:48.451Z,30.25
2024-05-09T18:28:17.973Z,30.45
2024-05-09T18:30:47.159Z,30.68
2024-05-09T18:33:16.555Z,30.78
2024-05-09T18:35:46.197Z,30.99
2024-05-09T18:38:15.636Z,31.26
2024-05-09T18:40:48.106Z,31.35
2024-05-09T18:43:25.943Z,31.49
2024-05-09T18:45:59.802Z,31.38
2024-05-09T18:48:28.835Z,31.58
2024-05-09T18:50:57.680Z,31.67
2024-05-09T18:53:26.602Z,31.61
2024-05-09T18:55:55.667Z,31.74
2024-05-09T18:58:25.204Z,31.95
2024-05-09T19:00:55.600Z,31.95
2024-05-09T19:03:26.036Z,32.35
2024-05-09T19:05:55.499Z,32.72
2024-05-09T19:08:24.803Z,33.25
2024-05-09T19:10:54.484Z,33.94
2024-05-09T19:13:25.299Z,34.23
2024-05-09T19:15:54.588Z,34.44
2024-05-09T19:18:24.034Z,34.70
2024-05-09T19:20:53.513Z,35.13
2024-05-09T19:23:22.853Z,35.18
2024-05-09T19:25:52.606Z,35.24
2024-05-09T19:28:21.743Z,35.71
2024-05-09T19:30:50.787Z,35.66
2024-05-09T19:33:19.757Z,35.70
2024-05-09T19:35:48.527Z,35.71
2024-05-09T19:38:17.518Z,35.81
2024-05-09T19:40:46.335Z,36.10
2024-05-09T19:43:15.433Z,36.25
2024-05-09T19:45:44.879Z,36.58
2024-05-09T19:48:16.815Z,36.83
2024-05-09T19:50:46.270Z,37.10
2024-05-09T19:53:15.627Z,37.56
2024-05-09T19:55:44.699Z,37.46
2024-05-09T19:58:13.949Z,38.08
2024-05-09T20:00:44.209Z,38.67
2024-05-09T20:03:15.214Z,39.25
2024-05-09T20:05:46.834Z,39.54
2024-05-09T20:08:16.526Z,39.75
2024-05-09T20:10:45.547Z,39.96
2024-05-09T20:13:14.793Z,39.97
2024-05-09T20:15:43.758Z,39.88
2024-05-09T20:18:13.452Z,39.76
2024-05-09T20:20:44.092Z,39.85
2024-05-09T20:23:14.339Z,40.13
2024-05-09T20:25:43.750Z,40.69
2024-05-09T20:28:12.641Z,40.85
2024-05-09T20:30:41.961Z,41.38
2024-05-09T20:33:12.572Z,41.56
2024-05-09T20:35:41.751Z,41.53
2024-05-09T20:38:10.684Z,41.98
2024-05-09T20:40:40.095Z,42.42
2024-05-09T20:43:10.150Z,42.64
2024-05-09T20:45:40.162Z,43.06
2024-05-09T20:48:10.255Z,43.13
2024-05-09T20:50:41.787Z,43.48
2024-05-09T20:53:14.437Z,43.52
2024-05-09T20:55:45.234Z,43.59
2024-05-09T20:58:14.693Z,43.62
2024-05-09T21:00:45.952Z,44.04
2024-05-09T21:03:17.476Z,44.45
2024-05-09T21:05:48.588Z,44.50
2024-05-09T21:08:17.896Z,44.54
2024-05-09T21:10:47.069Z,44.61
2024-05-09T21:13:16.128Z,44.95
2024-05-09T21:15:45.043Z,45.25
2024-05-09T21:18:14.257Z,45.72
2024-05-09T21:20:43.169Z,45.51
2024-05-09T21:23:12.087Z,45.77
2024-05-09T21:25:41.070Z,45.82
2024-05-09T21:28:10.018Z,45.91
2024-05-09T21:30:42.440Z,45.55
2024-05-09T21:33:13.969Z,45.66
2024-05-09T21:35:44.909Z,45.65
2024-05-09T21:38:15.202Z,45.61
2024-05-09T21:40:45.234Z,45.86
2024-05-09T21:43:14.505Z,46.18
2024-05-09T21:45:43.562Z,46.25
2024-05-09T21:48:13.290Z,46.58
2024-05-09T21:50:43.024Z,46.95
2024-05-09T21:53:13.107Z,47.25
2024-05-09T21:55:43.108Z,47.61
2024-05-09T21:58:14.055Z,48.41
2024-05-09T22:00:45.676Z,48.59
2024-05-09T22:03:14.897Z,48.55
2024-05-09T22:05:44.974Z,48.70
2024-05-09T22:08:14.121Z,48.94
2024-05-09T22:10:43.302Z,48.98
2024-05-09T22:13:12.212Z,49.58
2024-05-09T22:15:41.395Z,49.89
2024-05-09T22:18:11.471Z,50.00
2024-05-09T22:20:45.325Z,50.17
2024-05-09T22:23:15.875Z,50.71
2024-05-09T22:25:45.181Z,50.94
2024-05-09T22:28:17.392Z,50.93
2024-05-09T22:30:47.119Z,51.21
2024-05-09T22:33:16.643Z,51.56
2024-05-09T22:35:45.700Z,51.96
2024-05-09T22:38:14.486Z,52.03
2024-05-09T22:40:48.214Z,52.16
2024-05-09T22:43:21.726Z,52.30
2024-05-09T22:45:56.809Z,52.48
2024-05-09T22:48:26.297Z,52.62
2024-05-09T22:50:55.349Z,52.95
2024-05-09T22:53:25.333Z,53.13
2024-05-09T22:55:54.570Z,53.46
2024-05-09T22:58:23.900Z,53.66
2024-05-09T23:00:53.307Z,53.67
2024-05-09T23:03:22.840Z,53.65
2024-05-09T23:05:53.686Z,53.80
2024-05-09T23:08:22.667Z,53.88
2024-05-09T23:10:51.558Z,54.08
2024-05-09T23:13:20.505Z,54.31
2024-05-09T23:15:49.470Z,54.32
2024-05-09T23:18:18.383Z,54.48
2024-05-09T23:20:47.327Z,54.32
2024-05-09T23:23:16.119Z,54.94
2024-05-09T23:25:45.106Z,55.01
2024-05-09T23:28:14.113Z,55.24
2024-05-09T23:30:43.126Z,55.41
2024-05-09T23:33:14.100Z,55.79
2024-05-09T23:35:44.523Z,55.66
2024-05-09T23:38:14.395Z,55.37
2024-05-09T23:40:43.740Z,55.62
2024-05-09T23:43:14.747Z,55.79
2024-05-09T23:45:43.963Z,56.07
2024-05-09T23:48:12.988Z,56.28
2024-05-09T23:50:42.396Z,56.89
2024-05-09T23:53:11.442Z,57.10
2024-05-09T23:55:40.796Z,57.14
2024-05-09T23:58:11.293Z,57.11
